createdAt,value
2018-07-06T00:00:59.023Z,0.00
2018-07-06T00:01:59.011Z,0.00
2018-07-06T00:02:58.966Z,0.00
2018-07-06T00:03:58.970Z,0.00
2018-07-06T00:04:58.952Z,0.00
2018-07-06T00:05:58.892Z,0.00
2018-07-06T00:06:58.880Z,0.00
2018-07-06T00:07:58.851Z,0.00
2018-07-06T00:08:58.830Z,0.00
2018-07-06T00:09:58.808Z,0.00
2018-07-06T00:10:58.860Z,0.00
2018-07-06T00:11:58.799Z,0.00
2018-07-06T00:12:58.732Z,0.00
2018-07-06T00:13:58.704Z,0.00
2018-07-06T00:14:58.694Z,0.00
2018-07-06T00:15:58.667Z,0.00
2018-07-06T00:16:58.665Z,0.00
2018-07-06T00:17:58.613Z,0.00
2018-07-06T00:18:58.572Z,0.00
2018-07-06T00:19:58.575Z,0.00
2018-07-06T00:21:00.478Z,0.00
2018-07-06T00:21:58.497Z,0.00
2018-07-06T00:22:58.480Z,0.00
2018-07-06T00:23:58.443Z,0.00
2018-07-06T00:24:58.448Z,0.00
2018-07-06T00:25:58.437Z,0.00
2018-07-06T00:26:58.379Z,0.00
2018-07-06T00:27:58.360Z,0.00
2018-07-06T00:28:58.340Z,0.00
2018-07-06T00:29:58.304Z,0.00
2018-07-06T00:30:58.277Z,0.00
2018-07-06T00:31:58.252Z,0.00
2018-07-06T00:32:58.238Z,0.00
2018-07-06T00:33:58.208Z,0.00
2018-07-06T00:34:58.180Z,0.00
2018-07-06T00:35:58.164Z,0.00
2018-07-06T00:36:58.138Z,0.00
2018-07-06T00:37:58.108Z,0.00
2018-07-06T00:38:58.074Z,0.00
2018-07-06T00:39:58.065Z,0.00
2018-07-06T00:40:58.030Z,0.00
2018-07-06T00:41:58.022Z,0.00
2018-07-06T00:42:58.977Z,0.00
2018-07-06T00:43:57.961Z,0.00
2018-07-06T00:44:57.938Z,0.00
2018-07-06T00:45:57.902Z,0.00
2018-07-06T00:46:57.892Z,0.00
2018-07-06T00:47:57.858Z,0.00
2018-07-06T00:48:57.837Z,0.00
2018-07-06T00:49:57.827Z,0.00
2018-07-06T00:50:57.793Z,0.00
2018-07-06T00:51:57.755Z,0.00
2018-07-06T00:52:57.758Z,0.00
2018-07-06T00:53:57.741Z,0.00
2018-07-06T00:54:57.704Z,0.00
2018-07-06T00:55:57.670Z,0.00
2018-07-06T00:56:57.656Z,0.00
2018-07-06T00:57:57.606Z,0.00
2018-07-06T00:58:57.595Z,0.00
2018-07-06T00:59:57.574Z,0.00
2018-07-06T01:00:57.543Z,0.00
2018-07-06T01:01:57.594Z,0.00
2018-07-06T01:02:57.498Z,0.00
2018-07-06T01:03:57.461Z,0.00
2018-07-06T01:04:57.444Z,0.00
2018-07-06T01:05:57.408Z,0.00
2018-07-06T01:06:57.381Z,0.00
2018-07-06T01:07:57.357Z,0.00
2018-07-06T01:08:57.346Z,0.00
2018-07-06T01:09:57.316Z,0.00
2018-07-06T01:10:57.282Z,0.00
2018-07-06T01:11:57.261Z,0.00
2018-07-06T01:12:57.283Z,0.00
2018-07-06T01:13:57.232Z,0.00
2018-07-06T01:14:57.209Z,0.00
2018-07-06T01:15:57.179Z,0.00
2018-07-06T01:16:57.145Z,0.00
2018-07-06T01:17:57.118Z,0.00
2018-07-06T01:18:57.091Z,0.00
2018-07-06T01:19:57.073Z,0.00
2018-07-06T01:20:57.065Z,0.00
2018-07-06T01:21:57.044Z,0.00
2018-07-06T01:22:56.990Z,0.00
2018-07-06T01:23:56.993Z,0.00
2018-07-06T01:24:56.944Z,0.00
2018-07-06T01:25:56.913Z,0.00
2018-07-06T01:26:56.940Z,0.00
2018-07-06T01:27:58.481Z,0.00
2018-07-06T01:28:56.848Z,0.00
2018-07-06T01:29:56.834Z,0.00
2018-07-06T01:30:56.790Z,0.00
2018-07-06T01:31:56.789Z,0.00
2018-07-06T01:32:56.732Z,0.00
2018-07-06T01:33:56.710Z,0.00
2018-07-06T01:34:56.703Z,0.00
2018-07-06T01:35:56.679Z,0.00
2018-07-06T01:36:56.639Z,0.00
2018-07-06T01:37:56.622Z,0.00
2018-07-06T01:38:56.610Z,0.00
2018-07-06T01:39:58.519Z,0.00
2018-07-06T01:40:56.536Z,0.00
2018-07-06T01:41:56.558Z,0.00
2018-07-06T01:42:56.491Z,0.00
2018-07-06T01:43:56.524Z,0.00
2018-07-06T01:44:56.458Z,0.00
2018-07-06T01:45:56.413Z,0.00
2018-07-06T01:46:56.394Z,0.00
2018-07-06T01:47:56.377Z,0.00
2018-07-06T01:48:56.380Z,0.00
2018-07-06T01:49:56.331Z,0.00
2018-07-06T01:50:56.324Z,0.00
2018-07-06T01:51:56.278Z,0.00
2018-07-06T01:52:56.263Z,0.00
2018-07-06T01:53:56.221Z,0.00
2018-07-06T01:54:56.193Z,0.00
2018-07-06T01:55:56.204Z,0.00
2018-07-06T01:56:56.169Z,0.00
2018-07-06T01:57:56.153Z,0.00
2018-07-06T01:58:57.987Z,0.00
2018-07-06T01:59:56.083Z,0.00
2018-07-06T02:00:56.132Z,0.00
2018-07-06T02:01:56.014Z,0.00
2018-07-06T02:02:55.995Z,0.00
2018-07-06T02:03:55.985Z,0.00
2018-07-06T02:04:55.964Z,0.00
2018-07-06T02:05:55.939Z,0.00
2018-07-06T02:06:55.896Z,0.00
2018-07-06T02:07:55.862Z,0.00
2018-07-06T02:08:55.846Z,0.00
2018-07-06T02:09:55.823Z,4.00
2018-07-06T02:10:55.808Z,4.00
2018-07-06T02:11:55.775Z,4.00
2018-07-06T02:12:55.737Z,4.00
2018-07-06T02:13:55.722Z,4.00
2018-07-06T02:14:55.718Z,4.00
2018-07-06T02:15:55.738Z,0.00
2018-07-06T02:16:55.637Z,4.00
2018-07-06T02:17:55.643Z,4.00
2018-07-06T02:18:55.641Z,4.00
2018-07-06T02:19:55.556Z,4.00
2018-07-06T02:20:55.547Z,4.00
2018-07-06T02:21:55.521Z,4.00
2018-07-06T02:22:55.513Z,8.00
2018-07-06T02:23:55.459Z,8.00
2018-07-06T02:24:55.428Z,8.00
2018-07-06T02:25:55.425Z,8.00
2018-07-06T02:26:55.386Z,12.00
2018-07-06T02:27:55.363Z,12.00
2018-07-06T02:28:55.350Z,12.00
2018-07-06T02:29:55.307Z,16.00
2018-07-06T02:31:55.313Z,16.00
2018-07-06T02:32:55.228Z,16.00
2018-07-06T02:33:55.246Z,16.00
2018-07-06T02:34:55.204Z,20.00
2018-07-06T02:35:55.185Z,20.00
2018-07-06T02:36:55.168Z,20.00
2018-07-06T02:37:55.132Z,24.00
2018-07-06T02:38:55.110Z,28.00
2018-07-06T02:39:55.068Z,28.00
2018-07-06T02:40:55.065Z,32.00
2018-07-06T02:41:55.997Z,32.00
2018-07-06T02:42:54.991Z,36.00
2018-07-06T02:43:55.022Z,36.00
2018-07-06T02:44:54.963Z,40.00
2018-07-06T02:45:54.899Z,44.00
2018-07-06T02:46:54.907Z,44.00
2018-07-06T02:47:54.885Z,48.00
2018-07-06T02:48:54.825Z,48.00
2018-07-06T02:49:54.859Z,48.00
2018-07-06T02:50:54.812Z,56.00
2018-07-06T02:51:54.802Z,56.00
2018-07-06T02:52:54.743Z,56.00
2018-07-06T02:53:56.495Z,60.00
2018-07-06T02:54:54.673Z,60.00
2018-07-06T02:56:54.661Z,72.00
2018-07-06T02:57:54.658Z,72.00
2018-07-06T02:58:54.583Z,72.00
2018-07-06T02:59:54.559Z,76.00
2018-07-06T03:00:55.523Z,80.00
2018-07-06T03:01:54.500Z,88.00
2018-07-06T03:02:54.477Z,96.00
2018-07-06T03:03:54.448Z,100.00
2018-07-06T03:04:54.419Z,108.00
2018-07-06T03:05:54.406Z,108.00
2018-07-06T03:06:54.361Z,108.00
2018-07-06T03:07:54.357Z,112.00
2018-07-06T03:08:54.330Z,116.00
2018-07-06T03:09:54.347Z,120.00
2018-07-06T03:10:54.331Z,124.00
2018-07-06T03:11:54.262Z,128.00
2018-07-06T03:12:54.221Z,132.00
2018-07-06T03:13:54.199Z,136.00
2018-07-06T03:14:54.196Z,144.00
2018-07-06T03:15:54.157Z,152.00
2018-07-06T03:16:54.132Z,156.00
2018-07-06T03:17:54.089Z,164.00
2018-07-06T03:18:54.073Z,172.00
2018-07-06T03:19:54.047Z,176.00
2018-07-06T03:20:54.027Z,180.00
2018-07-06T03:21:54.015Z,180.00
2018-07-06T03:22:53.957Z,184.00
2018-07-06T03:23:53.937Z,188.00
2018-07-06T03:24:55.511Z,188.00
2018-07-06T03:25:53.884Z,192.00
2018-07-06T03:26:55.520Z,196.00
2018-07-06T03:27:53.910Z,204.00
2018-07-06T03:28:53.826Z,212.00
2018-07-06T03:29:53.866Z,216.00
2018-07-06T03:30:53.787Z,220.00
2018-07-06T03:31:53.747Z,228.00
2018-07-06T03:32:53.717Z,228.00
2018-07-06T03:33:53.678Z,232.00
2018-07-06T03:34:53.660Z,240.00
2018-07-06T03:35:53.667Z,256.00
2018-07-06T03:36:53.600Z,268.00
2018-07-06T03:37:53.601Z,284.00
2018-07-06T03:38:53.558Z,288.00
2018-07-06T03:39:53.547Z,288.00
2018-07-06T03:40:55.015Z,284.00
2018-07-06T03:41:53.512Z,284.00
2018-07-06T03:42:53.467Z,284.00
2018-07-06T03:43:53.442Z,284.00
2018-07-06T03:44:53.405Z,284.00
2018-07-06T03:45:53.389Z,292.00
2018-07-06T03:46:53.371Z,304.00
2018-07-06T03:47:53.331Z,312.00
2018-07-06T03:48:53.296Z,320.00
2018-07-06T03:49:53.284Z,324.00
2018-07-06T03:50:53.245Z,332.00
2018-07-06T03:51:53.228Z,340.00
2018-07-06T03:52:53.204Z,348.00
2018-07-06T03:53:53.183Z,360.00
2018-07-06T03:54:53.167Z,368.00
2018-07-06T03:55:53.148Z,392.00
2018-07-06T03:56:53.091Z,412.00
2018-07-06T03:57:53.071Z,436.00
2018-07-06T03:58:53.090Z,464.00
2018-07-06T03:59:53.037Z,484.00
2018-07-06T04:00:52.992Z,476.00
2018-07-06T04:01:52.975Z,480.00
2018-07-06T04:02:52.953Z,488.00
2018-07-06T04:03:52.922Z,488.00
2018-07-06T04:04:52.897Z,480.00
2018-07-06T04:05:52.886Z,492.00
2018-07-06T04:06:52.842Z,504.00
2018-07-06T04:07:52.828Z,504.00
2018-07-06T04:08:52.793Z,504.00
2018-07-06T04:09:52.761Z,504.00
2018-07-06T04:10:52.737Z,508.00
2018-07-06T04:11:52.720Z,512.00
2018-07-06T04:12:52.687Z,512.00
2018-07-06T04:13:52.670Z,512.00
2018-07-06T04:14:54.513Z,536.00
2018-07-06T04:15:52.613Z,576.00
2018-07-06T04:16:52.582Z,624.00
2018-07-06T04:17:52.555Z,644.00
2018-07-06T04:18:52.555Z,652.00
2018-07-06T04:19:52.506Z,656.00
2018-07-06T04:20:52.485Z,660.00
2018-07-06T04:21:52.469Z,676.00
2018-07-06T04:22:52.445Z,692.00
2018-07-06T04:23:54.025Z,680.00
2018-07-06T04:24:52.395Z,712.00
2018-07-06T04:25:52.360Z,696.00
2018-07-06T04:26:52.347Z,664.00
2018-07-06T04:27:52.319Z,680.00
2018-07-06T04:28:52.282Z,704.00
2018-07-06T04:29:52.269Z,696.00
2018-07-06T04:30:52.232Z,684.00
2018-07-06T04:31:52.237Z,692.00
2018-07-06T04:32:52.184Z,700.00
2018-07-06T04:33:52.152Z,728.00
2018-07-06T04:34:52.152Z,776.00
2018-07-06T04:35:52.111Z,812.00
2018-07-06T04:36:52.083Z,816.00
2018-07-06T04:37:52.072Z,768.00
2018-07-06T04:38:52.029Z,748.00
2018-07-06T04:39:52.056Z,748.00
2018-07-06T04:40:51.987Z,772.00
2018-07-06T04:41:51.950Z,808.00
2018-07-06T04:42:51.931Z,828.00
2018-07-06T04:43:51.915Z,880.00
2018-07-06T04:44:51.875Z,880.00
2018-07-06T04:45:51.862Z,868.00
2018-07-06T04:46:51.854Z,868.00
2018-07-06T04:47:51.800Z,892.00
2018-07-06T04:48:51.779Z,892.00
2018-07-06T04:49:51.754Z,932.00
2018-07-06T04:50:51.727Z,992.00
2018-07-06T04:51:51.730Z,1016.00
2018-07-06T04:52:51.703Z,1004.00
2018-07-06T04:53:51.682Z,1032.00
2018-07-06T04:54:51.632Z,1044.00
2018-07-06T04:55:51.649Z,1052.00
2018-07-06T04:56:51.603Z,1036.00
2018-07-06T04:57:51.553Z,1060.00
2018-07-06T04:58:51.549Z,1160.00
2018-07-06T04:59:53.099Z,1244.00
2018-07-06T05:01:00.394Z,1264.00
2018-07-06T05:02:44.777Z,1180.00
2018-07-06T05:03:44.754Z,1164.00
2018-07-06T05:04:44.734Z,1172.00
2018-07-06T05:05:44.703Z,1252.00
2018-07-06T05:06:44.679Z,1328.00
2018-07-06T05:07:44.686Z,1320.00
2018-07-06T05:08:44.633Z,1308.00
2018-07-06T05:09:44.601Z,1316.00
2018-07-06T05:10:44.576Z,1368.00
2018-07-06T05:11:44.554Z,1404.00
2018-07-06T05:12:44.521Z,1400.00
2018-07-06T05:13:44.514Z,1400.00
2018-07-06T05:14:44.475Z,1456.00
2018-07-06T05:15:44.463Z,1492.00
2018-07-06T05:16:44.439Z,1400.00
2018-07-06T05:17:46.383Z,1328.00
2018-07-06T05:18:44.384Z,1296.00
2018-07-06T05:19:44.355Z,1312.00
2018-07-06T05:20:44.328Z,1368.00
2018-07-06T05:21:44.300Z,1448.00
2018-07-06T05:22:44.276Z,1440.00
2018-07-06T05:23:44.254Z,1400.00
2018-07-06T05:24:44.228Z,1352.00
2018-07-06T05:25:44.201Z,1352.00
2018-07-06T05:26:44.178Z,1376.00
2018-07-06T05:27:44.155Z,1432.00
2018-07-06T05:28:44.129Z,1428.00
2018-07-06T05:29:44.106Z,1420.00
2018-07-06T05:30:44.090Z,1464.00
2018-07-06T05:31:44.064Z,1460.00
2018-07-06T05:32:44.031Z,1448.00
2018-07-06T05:33:44.029Z,1488.00
2018-07-06T05:34:43.979Z,1620.00
2018-07-06T05:35:43.957Z,1752.00
2018-07-06T05:36:43.939Z,1988.00
2018-07-06T05:37:43.925Z,2128.00
2018-07-06T05:38:43.883Z,2148.00
2018-07-06T05:39:43.857Z,2136.00
2018-07-06T05:40:43.836Z,2092.00
2018-07-06T05:41:43.808Z,2168.00
2018-07-06T05:42:45.390Z,2512.00
2018-07-06T05:43:43.760Z,2796.00
2018-07-06T05:44:43.732Z,2880.00
2018-07-06T05:45:43.702Z,3128.00
2018-07-06T05:46:43.683Z,3380.00
2018-07-06T05:47:43.661Z,3564.00
2018-07-06T05:48:43.633Z,3624.00
2018-07-06T05:49:45.392Z,3656.00
2018-07-06T05:50:43.586Z,3720.00
2018-07-06T05:51:43.561Z,3708.00
2018-07-06T05:52:43.541Z,3788.00
2018-07-06T05:56:43.510Z,3988.00
2018-07-06T05:57:43.418Z,4124.00
2018-07-06T05:58:43.391Z,4252.00
2018-07-06T05:59:43.383Z,4176.00
2018-07-06T06:00:43.344Z,4328.00
2018-07-06T06:01:43.318Z,4264.00
2018-07-06T06:02:43.309Z,4268.00
2018-07-06T06:06:43.209Z,4496.00
2018-07-06T06:07:43.173Z,4616.00
2018-07-06T06:08:43.148Z,4716.00
2018-07-06T06:09:43.126Z,5016.00
2018-07-06T06:10:43.107Z,4840.00
2018-07-06T06:14:43.053Z,5272.00
2018-07-06T06:15:42.985Z,4848.00
2018-07-06T06:17:42.941Z,4132.00
2018-07-06T06:18:43.050Z,4404.00
2018-07-06T06:19:42.894Z,4964.00
2018-07-06T06:20:42.874Z,5312.00
2018-07-06T06:21:42.849Z,5480.00
2018-07-06T06:25:42.765Z,4676.00
2018-07-06T06:26:42.728Z,4308.00
2018-07-06T06:27:42.707Z,4376.00
2018-07-06T06:28:42.683Z,4700.00
2018-07-06T06:29:42.677Z,4852.00
2018-07-06T06:30:42.644Z,4292.00
2018-07-06T06:31:42.612Z,3964.00
2018-07-06T06:35:42.523Z,4176.00
2018-07-06T06:36:42.498Z,4372.00
2018-07-06T06:37:42.474Z,4552.00
2018-07-06T06:38:42.454Z,4804.00
2018-07-06T06:39:42.434Z,4976.00
2018-07-06T06:40:42.410Z,4812.00
2018-07-06T06:41:42.386Z,4564.00
2018-07-06T06:42:42.363Z,4244.00
2018-07-06T06:43:42.339Z,4132.00
2018-07-06T06:47:42.257Z,4164.00
2018-07-06T06:48:42.220Z,4040.00
2018-07-06T06:49:43.904Z,4108.00
2018-07-06T06:50:42.225Z,4060.00
2018-07-06T06:51:42.150Z,3964.00
2018-07-06T06:52:42.128Z,4160.00
2018-07-06T06:53:42.105Z,4256.00
2018-07-06T06:54:42.075Z,4128.00
2018-07-06T06:55:42.064Z,4216.00
2018-07-06T07:00:41.947Z,4032.00
2018-07-06T07:01:41.917Z,4528.00
2018-07-06T07:02:41.898Z,4544.00
2018-07-06T07:03:41.874Z,4508.00
2018-07-06T07:04:41.849Z,4588.00
2018-07-06T07:05:41.823Z,4588.00
2018-07-06T07:06:42.224Z,4752.00
2018-07-06T07:07:42.676Z,4944.00
2018-07-06T07:08:42.284Z,4700.00
2018-07-06T07:12:42.265Z,4276.00
2018-07-06T07:13:42.074Z,4100.00
2018-07-06T07:14:42.025Z,4512.00
2018-07-06T07:15:42.844Z,4872.00
2018-07-06T07:16:45.035Z,4632.00
2018-07-06T07:23:06.658Z,5580.00
2018-07-06T07:24:59.782Z,5560.00
2018-07-06T07:25:59.746Z,5316.00
2018-07-06T07:27:52.881Z,4708.00
2018-07-06T07:28:52.827Z,5052.00
2018-07-06T07:30:45.654Z,5332.00
2018-07-06T07:31:45.641Z,5292.00
2018-07-06T07:33:38.464Z,5080.00
2018-07-06T07:34:38.416Z,5368.00
2018-07-06T07:36:31.241Z,4996.00
2018-07-06T07:37:31.211Z,4944.00
2018-07-06T07:39:24.062Z,4788.00
2018-07-06T07:40:24.006Z,5248.00
2018-07-06T07:42:16.825Z,5108.00
2018-07-06T07:43:16.794Z,5200.00
2018-07-06T07:45:09.644Z,5056.00
2018-07-06T07:46:09.600Z,4752.00
2018-07-06T07:47:09.568Z,4676.00
2018-07-06T07:48:09.542Z,4944.00
2018-07-06T07:49:09.517Z,4936.00
2018-07-06T07:53:09.439Z,5492.00
2018-07-06T07:54:09.420Z,5076.00
2018-07-06T07:55:09.424Z,5496.00
2018-07-06T07:56:09.357Z,6140.00
2018-07-06T07:57:09.333Z,6416.00
2018-07-06T07:58:09.314Z,6704.00
2018-07-06T07:59:09.288Z,6824.00
2018-07-06T08:00:09.265Z,7012.00
2018-07-06T08:04:09.193Z,5828.00
2018-07-06T08:05:09.154Z,6284.00
2018-07-06T08:06:09.131Z,6060.00
2018-07-06T08:07:09.115Z,5548.00
2018-07-06T08:08:09.088Z,5492.00
2018-07-06T08:09:30.053Z,5548.00
2018-07-06T08:14:08.952Z,6780.00
2018-07-06T08:15:08.930Z,7092.00
2018-07-06T08:16:08.917Z,6944.00
2018-07-06T08:17:08.888Z,6920.00
2018-07-06T08:18:08.861Z,7576.00
2018-07-06T08:19:08.838Z,8688.00
2018-07-06T08:20:32.705Z,8956.00
2018-07-06T08:24:08.843Z,10188.00
2018-07-06T08:25:08.710Z,10720.00
2018-07-06T08:26:15.202Z,10952.00
2018-07-06T08:27:08.733Z,10560.00
2018-07-06T08:28:08.642Z,10420.00
2018-07-06T08:29:08.611Z,10684.00
2018-07-06T08:30:29.586Z,10068.00
2018-07-06T08:32:08.624Z,10652.00
2018-07-06T08:33:08.540Z,10300.00
2018-07-06T08:34:08.512Z,10252.00
2018-07-06T08:35:08.493Z,10488.00
2018-07-06T08:36:08.468Z,11740.00
2018-07-06T08:37:08.448Z,10984.00
2018-07-06T08:38:08.427Z,10596.00
2018-07-06T08:39:15.205Z,10684.00
2018-07-06T08:43:08.395Z,11144.00
2018-07-06T08:44:08.302Z,11188.00
2018-07-06T08:45:08.269Z,16768.00
2018-07-06T08:46:08.306Z,10224.00
2018-07-06T08:49:54.373Z,8800.00
2018-07-06T08:54:39.668Z,12188.00
2018-07-06T08:55:39.652Z,12060.00
2018-07-06T08:56:39.628Z,13552.00
2018-07-06T08:58:03.379Z,12232.00
2018-07-06T09:01:39.595Z,13800.00
2018-07-06T09:02:54.378Z,11096.00
2018-07-06T09:06:39.492Z,11072.00
2018-07-06T09:07:39.411Z,11228.00
2018-07-06T09:08:39.457Z,10628.00
2018-07-06T09:09:39.405Z,10520.00
2018-07-06T09:12:02.885Z,10280.00
2018-07-06T09:16:39.237Z,9984.00
2018-07-06T09:17:39.216Z,9936.00
2018-07-06T09:24:04.436Z,13148.00
2018-07-06T09:25:04.316Z,12640.00
2018-07-06T09:26:19.175Z,12428.00
2018-07-06T09:28:04.261Z,11544.00
2018-07-06T09:29:04.237Z,10440.00
2018-07-06T09:30:19.143Z,10332.00
2018-07-06T09:35:04.127Z,9668.00
2018-07-06T09:36:04.107Z,9028.00
2018-07-06T09:37:04.091Z,8968.00
2018-07-06T09:38:04.069Z,9372.00
2018-07-06T09:39:04.054Z,10320.00
2018-07-06T09:40:04.036Z,11904.00
2018-07-06T09:41:04.017Z,11568.00
2018-07-06T09:42:04.007Z,11100.00
2018-07-06T09:43:03.982Z,10280.00
2018-07-06T09:44:03.960Z,9600.00
2018-07-06T09:45:04.663Z,10000.00
2018-07-06T09:46:03.922Z,10752.00
2018-07-06T09:47:03.901Z,10652.00
2018-07-06T09:48:40.646Z,11576.00
2018-07-06T09:50:39.649Z,13252.00
2018-07-06T09:53:03.791Z,7648.00
2018-07-06T09:54:04.659Z,12760.00
2018-07-06T09:55:03.755Z,13956.00
2018-07-06T09:56:03.732Z,15488.00
2018-07-06T09:57:03.752Z,14164.00
2018-07-06T09:58:04.754Z,9036.00
2018-07-06T09:59:03.683Z,9764.00
2018-07-06T10:00:03.662Z,10096.00
2018-07-06T10:01:03.642Z,10484.00
2018-07-06T10:02:03.635Z,10436.00
2018-07-06T10:03:04.171Z,13484.00
2018-07-06T10:04:03.585Z,15552.00
2018-07-06T10:05:03.575Z,14004.00
2018-07-06T10:06:03.553Z,14640.00
2018-07-06T10:07:03.546Z,14572.00
2018-07-06T10:08:03.505Z,14784.00
2018-07-06T10:09:04.166Z,15520.00
2018-07-06T10:10:03.514Z,16992.00
2018-07-06T10:11:03.517Z,17760.00
2018-07-06T10:12:03.437Z,10032.00
2018-07-06T10:13:03.417Z,18144.00
2018-07-06T10:14:03.397Z,17504.00
2018-07-06T10:15:03.417Z,17920.00
2018-07-06T10:16:03.359Z,15200.00
2018-07-06T10:17:03.349Z,15872.00
2018-07-06T10:18:03.326Z,15248.00
2018-07-06T10:19:03.309Z,14224.00
2018-07-06T10:20:03.295Z,14224.00
2018-07-06T10:21:03.272Z,14188.00
2018-07-06T10:22:03.255Z,14364.00
2018-07-06T10:23:03.240Z,14828.00
2018-07-06T10:24:03.234Z,15840.00
2018-07-06T10:25:03.237Z,16608.00
2018-07-06T10:26:12.182Z,17408.00
2018-07-06T10:27:57.103Z,14136.00
2018-07-06T10:28:56.594Z,15968.00
2018-07-06T10:29:56.379Z,16672.00
2018-07-06T10:30:56.500Z,16480.00
2018-07-06T10:31:56.405Z,16000.00
2018-07-06T10:32:57.000Z,15808.00
2018-07-06T10:33:56.506Z,15584.00
2018-07-06T10:34:56.539Z,15776.00
2018-07-06T10:35:56.518Z,16288.00
2018-07-06T10:36:56.329Z,15712.00
2018-07-06T10:37:56.265Z,14244.00
2018-07-06T10:38:56.567Z,15328.00
2018-07-06T10:39:56.793Z,15228.00
2018-07-06T10:40:56.359Z,14996.00
2018-07-06T10:41:56.465Z,14772.00
2018-07-06T10:42:56.985Z,15020.00
2018-07-06T10:43:57.023Z,15332.00
2018-07-06T10:44:56.324Z,15904.00
2018-07-06T10:45:56.353Z,12024.00
2018-07-06T10:46:56.405Z,13404.00
2018-07-06T10:47:56.410Z,16512.00
2018-07-06T10:47:56.980Z,16512.00
2018-07-06T10:48:56.418Z,15584.00
2018-07-06T10:49:56.342Z,15108.00
2018-07-06T10:50:57.315Z,14472.00
2018-07-06T10:51:56.431Z,13768.00
2018-07-06T10:52:57.088Z,13664.00
2018-07-06T10:53:56.250Z,13852.00
2018-07-06T10:54:56.327Z,11832.00
2018-07-06T10:55:56.095Z,7152.00
2018-07-06T10:56:57.541Z,7040.00
2018-07-06T10:57:56.200Z,14456.00
2018-07-06T10:58:56.338Z,7808.00
2018-07-06T10:59:56.397Z,14116.00
2018-07-06T11:00:56.114Z,14084.00
2018-07-06T11:01:56.427Z,13864.00
2018-07-06T11:03:48.959Z,14020.00
2018-07-06T11:04:49.077Z,13772.00
2018-07-06T11:05:48.640Z,14204.00
2018-07-06T11:06:48.684Z,14428.00
2018-07-06T11:07:48.633Z,14348.00
2018-07-06T11:08:48.459Z,14488.00
2018-07-06T11:09:48.462Z,14524.00
2018-07-06T11:10:48.407Z,14656.00
2018-07-06T11:11:49.536Z,14580.00
2018-07-06T11:12:48.569Z,14668.00
2018-07-06T11:13:49.645Z,14488.00
2018-07-06T11:14:48.574Z,14000.00
2018-07-06T11:15:48.078Z,14224.00
2018-07-06T11:16:48.080Z,13984.00
2018-07-06T11:17:49.085Z,13648.00
2018-07-06T11:18:48.027Z,13256.00
2018-07-06T11:19:48.010Z,8616.00
2018-07-06T11:20:49.000Z,8260.00
2018-07-06T11:21:47.974Z,13260.00
2018-07-06T11:22:48.970Z,13068.00
2018-07-06T11:23:47.938Z,13068.00
2018-07-06T11:24:47.921Z,13200.00
2018-07-06T11:25:48.914Z,13428.00
2018-07-06T11:26:47.884Z,11792.00
2018-07-06T11:27:48.872Z,13228.00
2018-07-06T11:31:47.800Z,13280.00
2018-07-06T11:32:47.780Z,13540.00
2018-07-06T11:33:48.772Z,11016.00
2018-07-06T11:34:47.743Z,13692.00
2018-07-06T11:35:47.731Z,10016.00
2018-07-06T11:36:47.710Z,8132.00
2018-07-06T11:37:47.698Z,14784.00
2018-07-06T11:38:47.672Z,14624.00
2018-07-06T11:39:47.666Z,14380.00
2018-07-06T11:40:47.637Z,13096.00
2018-07-06T11:41:47.618Z,13808.00
2018-07-06T11:42:47.599Z,13320.00
2018-07-06T11:43:47.599Z,13096.00
2018-07-06T11:44:47.592Z,12900.00
2018-07-06T11:45:47.547Z,12456.00
2018-07-06T11:46:47.528Z,12448.00
2018-07-06T11:47:47.523Z,12336.00
2018-07-06T11:48:47.495Z,12344.00
2018-07-06T11:49:47.475Z,12300.00
2018-07-06T11:50:47.457Z,12500.00
2018-07-06T11:51:47.445Z,12568.00
2018-07-06T11:52:47.426Z,12568.00
2018-07-06T11:53:47.414Z,12468.00
2018-07-06T11:54:47.391Z,12520.00
2018-07-06T11:55:47.377Z,12696.00
2018-07-06T11:56:47.360Z,13164.00
2018-07-06T11:57:47.342Z,12344.00
2018-07-06T11:58:47.323Z,12868.00
2018-07-06T11:59:47.299Z,7828.00
2018-07-06T12:00:47.290Z,11436.00
2018-07-06T12:01:47.277Z,13252.00
2018-07-06T12:02:47.255Z,13120.00
2018-07-06T12:03:47.229Z,13168.00
2018-07-06T12:04:47.212Z,12852.00
2018-07-06T12:05:47.199Z,12772.00
2018-07-06T12:06:47.181Z,12656.00
2018-07-06T12:07:47.157Z,12916.00
2018-07-06T12:08:47.143Z,12592.00
2018-07-06T12:09:47.133Z,12684.00
2018-07-06T12:10:47.102Z,12720.00
2018-07-06T12:11:47.087Z,12724.00
2018-07-06T12:12:47.074Z,13084.00
2018-07-06T12:13:48.041Z,12636.00
2018-07-06T12:14:47.037Z,12416.00
2018-07-06T12:15:47.522Z,12316.00
2018-07-06T12:16:47.680Z,12232.00
2018-07-06T12:17:47.189Z,12004.00
2018-07-06T12:18:47.185Z,12280.00
2018-07-06T12:19:47.121Z,12328.00
2018-07-06T12:20:47.313Z,12340.00
2018-07-06T12:21:47.146Z,12736.00
2018-07-06T12:22:47.350Z,13092.00
2018-07-06T12:23:47.811Z,13476.00
2018-07-06T12:24:47.516Z,13836.00
2018-07-06T12:25:47.283Z,13992.00
2018-07-06T12:26:47.051Z,13548.00
2018-07-06T12:27:47.009Z,13468.00
2018-07-06T12:28:47.227Z,13736.00
2018-07-06T12:29:47.110Z,14108.00
2018-07-06T12:30:47.013Z,14628.00
2018-07-06T12:31:47.121Z,14680.00
2018-07-06T12:32:46.746Z,14284.00
2018-07-06T12:33:47.188Z,14084.00
2018-07-06T12:34:46.907Z,13744.00
2018-07-06T12:35:46.913Z,9496.00
2018-07-06T12:36:47.018Z,6588.00
2018-07-06T12:37:47.077Z,10712.00
2018-07-06T12:38:46.984Z,14148.00
2018-07-06T12:39:46.602Z,6468.00
2018-07-06T12:40:46.587Z,13700.00
2018-07-06T12:41:46.572Z,7764.00
2018-07-06T12:42:46.550Z,5836.00
2018-07-06T12:43:46.541Z,6260.00
2018-07-06T12:44:46.734Z,12072.00
2018-07-06T12:45:46.937Z,13564.00
2018-07-06T12:46:46.943Z,12420.00
2018-07-06T12:47:46.864Z,12836.00
2018-07-06T12:48:46.857Z,12548.00
2018-07-06T12:49:47.319Z,12328.00
2018-07-06T12:50:47.640Z,12280.00
2018-07-06T12:51:46.837Z,12320.00
2018-07-06T12:52:47.069Z,12200.00
2018-07-06T12:53:46.733Z,12048.00
2018-07-06T12:54:46.747Z,11956.00
2018-07-06T12:55:46.790Z,11948.00
2018-07-06T12:55:47.813Z,11948.00
2018-07-06T12:56:47.348Z,11868.00
2018-07-06T12:57:46.846Z,7956.00
2018-07-06T12:58:47.629Z,12016.00
2018-07-06T12:59:46.734Z,11960.00
2018-07-06T13:00:47.171Z,12332.00
2018-07-06T13:01:46.510Z,11380.00
2018-07-06T13:02:46.676Z,5092.00
2018-07-06T13:03:47.973Z,6584.00
2018-07-06T13:04:46.632Z,12012.00
2018-07-06T13:05:46.651Z,11916.00
2018-07-06T13:06:46.638Z,11992.00
2018-07-06T13:07:46.874Z,11984.00
2018-07-06T13:10:00.171Z,9368.00
2018-07-06T13:11:00.158Z,6348.00
2018-07-06T13:12:53.929Z,11872.00
2018-07-06T13:13:53.866Z,11844.00
2018-07-06T13:14:53.862Z,11948.00
2018-07-06T13:15:53.794Z,11412.00
2018-07-06T13:16:54.212Z,8892.00
2018-07-06T13:17:53.721Z,12280.00
2018-07-06T13:18:54.184Z,12196.00
2018-07-06T13:19:54.785Z,12248.00
2018-07-06T13:20:53.682Z,11980.00
2018-07-06T13:21:53.638Z,12544.00
2018-07-06T13:22:53.725Z,5016.00
2018-07-06T13:23:53.788Z,10944.00
2018-07-06T13:24:53.682Z,11688.00
2018-07-06T13:26:46.025Z,9896.00
2018-07-06T13:27:45.920Z,11008.00
2018-07-06T13:29:39.574Z,11348.00
2018-07-06T13:30:39.543Z,11264.00
2018-07-06T13:32:32.683Z,11192.00
2018-07-06T13:33:32.658Z,11108.00
2018-07-06T13:34:32.624Z,11128.00
2018-07-06T13:35:32.606Z,11076.00
2018-07-06T13:36:32.597Z,11044.00
2018-07-06T13:37:32.573Z,11048.00
2018-07-06T13:38:32.558Z,10988.00
2018-07-06T13:39:33.462Z,10904.00
2018-07-06T13:40:32.520Z,10888.00
2018-07-06T13:41:32.503Z,10852.00
2018-07-06T13:42:32.481Z,10796.00
2018-07-06T13:43:32.471Z,10784.00
2018-07-06T13:44:32.458Z,10784.00
2018-07-06T13:45:32.480Z,10756.00
2018-07-06T13:46:32.412Z,10684.00
2018-07-06T13:47:32.393Z,10632.00
2018-07-06T13:48:32.382Z,10656.00
2018-07-06T13:49:32.362Z,10556.00
2018-07-06T13:50:32.396Z,10568.00
2018-07-06T13:51:32.324Z,10528.00
2018-07-06T13:52:32.309Z,10576.00
2018-07-06T13:53:32.304Z,10512.00